Time;durP1;ratioP1;P1;durP2;ratioP2;P2;SDS_P1;SDS_P2;PMS_P1;PMS_P2;Temp;Humidity;BMP_temperature;BMP_pressure;BME280_temperature;BME280_humidity;BME280_pressure;Samples;Min_cycle;Max_cycle;Signal;HPM_P1;HPM_P2
2023/05/12 00:01:37;;;;;;;17.52;7.03;;;;;;;;;;4993414;28;20030;-75
2023/05/12 00:04:04;;;;;;;40.65;7.80;;;;;;;;;;4993203;28;20026;-75
2023/05/12 00:06:30;;;;;;;17.42;7.25;;;;;;;;;;4992862;28;20023;-73
2023/05/12 00:08:56;;;;;;;24.27;7.85;;;;;;;;;;4993056;28;20022;-76
2023/05/12 00:11:22;;;;;;;31.63;7.20;;;;;;;;;;4992055;28;20117;-74
2023/05/12 00:13:48;;;;;;;31.75;7.93;;;;;;;;;;4992848;28;20034;-75
2023/05/12 00:16:16;;;;;;;20.80;7.45;;;;;;;;;;4993013;28;20517;-74
2023/05/12 00:18:42;;;;;;;27.35;7.88;;;;;;;;;;4992674;28;20463;-73
2023/05/12 00:21:08;;;;;;;34.38;9.20;;;;;;;;;;4992592;28;20498;-74
2023/05/12 00:23:34;;;;;;;66.72;10.90;;;;;;;;;;4991754;28;20511;-75
2023/05/12 00:26:00;;;;;;;56.10;10.30;;;;;;;;;;4992984;28;20073;-75
2023/05/12 00:28:26;;;;;;;45.50;10.75;;;;;;;;;;4992641;28;20019;-74
2023/05/12 00:30:52;;;;;;;37.55;9.07;;;;;;;;;;4991356;28;20046;-73
2023/05/12 00:33:18;;;;;;;41.83;10.25;;;;;;;;;;4992426;28;20025;-75
2023/05/12 00:35:44;;;;;;;35.92;10.70;;;;;;;;;;4992627;28;20026;-73
2023/05/12 00:38:11;;;;;;;28.15;10.07;;;;;;;;;;4989958;28;20027;-75
2023/05/12 00:40:37;;;;;;;22.38;10.35;;;;;;;;;;4992142;28;20026;-73
2023/05/12 00:43:03;;;;;;;22.75;10.55;;;;;;;;;;4992282;28;20403;-74
2023/05/12 00:45:30;;;;;;;23.88;9.82;;;;;;;;;;4990975;28;20026;-74
2023/05/12 00:47:56;;;;;;;21.33;10.40;;;;;;;;;;4992129;28;20025;-73
2023/05/12 00:50:23;;;;;;;20.00;10.35;;;;;;;;;;4991950;28;20026;-75
2023/05/12 00:52:49;;;;;;;19.55;9.80;;;;;;;;;;4992055;28;20026;-74
2023/05/12 00:55:15;;;;;;;19.85;10.60;;;;;;;;;;4974886;28;20025;-74
2023/05/12 00:57:42;;;;;;;25.17;11.13;;;;;;;;;;4992235;28;20121;-75
2023/05/12 01:00:10;;;;;;;21.23;10.63;;;;;;;;;;4991909;28;20511;-75
2023/05/12 01:02:36;;;;;;;19.73;9.65;;;;;;;;;;4990956;28;20039;-74
2023/05/12 01:05:03;;;;;;;18.88;10.02;;;;;;;;;;4991685;28;20058;-74
2023/05/12 01:07:31;;;;;;;22.45;12.85;;;;;;;;;;4991940;28;20022;-73
2023/05/12 01:09:57;;;;;;;32.67;15.57;;;;;;;;;;4991901;28;20025;-74
2023/05/12 01:12:24;;;;;;;32.40;16.85;;;;;;;;;;4991813;28;20041;-73
2023/05/12 01:14:51;;;;;;;37.80;19.85;;;;;;;;;;4992067;28;20030;-74
2023/05/12 01:17:20;;;;;;;46.08;19.05;;;;;;;;;;4991700;28;20394;-73
2023/05/12 01:19:48;;;;;;;44.40;19.40;;;;;;;;;;4990510;28;20037;-74
2023/05/12 01:22:14;;;;;;;51.83;20.98;;;;;;;;;;4991753;28;20050;-75
2023/05/12 01:24:45;;;;;;;42.67;19.65;;;;;;;;;;4991854;28;20037;-74
2023/05/12 01:27:12;;;;;;;46.10;19.17;;;;;;;;;;4991089;28;20034;-74
2023/05/12 01:29:38;;;;;;;39.67;19.10;;;;;;;;;;4991849;28;20019;-74
2023/05/12 01:32:05;;;;;;;35.53;18.83;;;;;;;;;;4991900;28;20069;-73
2023/05/12 01:34:32;;;;;;;43.65;18.75;;;;;;;;;;4993595;28;20041;-74
2023/05/12 01:36:58;;;;;;;43.28;18.33;;;;;;;;;;4997148;28;20160;-73
2023/05/12 01:39:24;;;;;;;37.78;18.17;;;;;;;;;;4995170;28;20026;-75
2023/05/12 01:41:50;;;;;;;35.05;17.45;;;;;;;;;;4996913;28;20030;-74
2023/05/12 01:44:16;;;;;;;40.00;17.75;;;;;;;;;;4997972;28;20031;-75
2023/05/12 01:46:42;;;;;;;33.58;17.02;;;;;;;;;;4998099;28;20034;-73
2023/05/12 01:49:08;;;;;;;40.45;18.33;;;;;;;;;;4997985;28;20095;-74
2023/05/12 01:51:34;;;;;;;35.33;16.73;;;;;;;;;;4997686;28;20035;-75
2023/05/12 01:54:00;;;;;;;36.55;17.67;;;;;;;;;;4997245;28;20030;-74
2023/05/12 01:56:27;;;;;;;36.30;17.92;;;;;;;;;;4997475;28;20106;-74
2023/05/12 01:58:53;;;;;;;32.72;16.95;;;;;;;;;;4997877;28;20018;-74
2023/05/12 02:01:19;;;;;;;35.95;17.05;;;;;;;;;;4997749;28;20205;-73
2023/05/12 02:03:45;;;;;;;38.13;16.98;;;;;;;;;;4997720;28;20097;-75
2023/05/12 02:06:11;;;;;;;33.03;16.38;;;;;;;;;;4997812;28;20076;-74
2023/05/12 02:08:37;;;;;;;34.58;16.52;;;;;;;;;;4998070;28;20027;-75
2023/05/12 02:11:04;;;;;;;33.25;16.10;;;;;;;;;;4996785;28;20052;-72
2023/05/12 02:13:31;;;;;;;31.85;15.68;;;;;;;;;;4997457;28;20073;-74
2023/05/12 02:15:57;;;;;;;34.88;16.55;;;;;;;;;;4998043;28;20030;-75
2023/05/12 02:18:23;;;;;;;32.30;15.30;;;;;;;;;;4997563;28;20029;-74
2023/05/12 02:20:49;;;;;;;35.15;16.83;;;;;;;;;;4997569;28;20129;-75
2023/05/12 02:23:15;;;;;;;33.92;16.15;;;;;;;;;;4997885;28;20472;-76
2023/05/12 02:25:41;;;;;;;36.70;17.20;;;;;;;;;;4997371;28;20502;-76
2023/05/12 02:28:09;;;;;;;35.42;16.00;;;;;;;;;;4996462;28;20480;-75
2023/05/12 02:30:36;;;;;;;31.80;16.65;;;;;;;;;;4996273;28;20030;-74
2023/05/12 02:33:04;;;;;;;33.38;17.10;;;;;;;;;;4997800;28;20605;-74
2023/05/12 02:35:30;;;;;;;31.17;15.23;;;;;;;;;;4997320;28;20109;-75
2023/05/12 02:37:56;;;;;;;34.00;16.88;;;;;;;;;;4997431;28;20026;-73
2023/05/12 02:40:22;;;;;;;41.70;17.88;;;;;;;;;;4997666;28;20382;-75
2023/05/12 02:42:48;;;;;;;35.03;15.85;;;;;;;;;;4997659;28;20498;-74
2023/05/12 02:45:14;;;;;;;33.92;16.75;;;;;;;;;;4996392;28;20026;-73
2023/05/12 02:47:40;;;;;;;36.47;15.90;;;;;;;;;;4993112;28;20096;-74
2023/05/12 02:50:06;;;;;;;34.85;16.85;;;;;;;;;;4994370;28;20035;-74
2023/05/12 02:52:32;;;;;;;36.45;16.77;;;;;;;;;;4994478;28;20395;-75
2023/05/12 02:54:58;;;;;;;35.22;16.23;;;;;;;;;;4993124;28;20087;-73
2023/05/12 02:57:26;;;;;;;37.30;17.73;;;;;;;;;;4994471;28;20475;-74
2023/05/12 02:59:52;;;;;;;39.40;17.80;;;;;;;;;;4992423;28;20403;-73
2023/05/12 03:02:18;;;;;;;40.78;16.95;;;;;;;;;;4993253;28;20035;-74
2023/05/12 03:04:44;;;;;;;45.28;18.55;;;;;;;;;;4994282;28;20109;-75
2023/05/12 03:07:10;;;;;;;51.38;20.55;;;;;;;;;;4994252;28;20451;-76
2023/05/12 03:09:36;;;;;;;50.60;20.52;;;;;;;;;;4993139;28;20367;-74
2023/05/12 03:12:02;;;;;;;55.33;20.77;;;;;;;;;;4993566;28;20042;-75
2023/05/12 03:14:28;;;;;;;49.58;19.80;;;;;;;;;;4992771;28;20030;-73
2023/05/12 03:16:54;;;;;;;47.58;19.73;;;;;;;;;;4994183;28;20547;-74
2023/05/12 03:19:20;;;;;;;44.50;19.73;;;;;;;;;;4993953;28;20061;-75
2023/05/12 03:21:46;;;;;;;44.10;19.85;;;;;;;;;;4993485;28;20082;-74
2023/05/12 03:24:12;;;;;;;48.67;20.75;;;;;;;;;;4993963;28;20105;-74
2023/05/12 03:26:38;;;;;;;45.85;20.48;;;;;;;;;;4992811;28;20018;-74
2023/05/12 03:29:04;;;;;;;54.10;21.77;;;;;;;;;;4993888;28;20032;-74
2023/05/12 03:31:30;;;;;;;60.67;21.92;;;;;;;;;;4993584;28;20044;-74
2023/05/12 03:33:56;;;;;;;56.92;20.88;;;;;;;;;;4992247;28;20052;-75
2023/05/12 03:36:22;;;;;;;56.65;21.92;;;;;;;;;;4993625;28;20041;-74
2023/05/12 03:38:48;;;;;;;52.75;20.48;;;;;;;;;;4993694;28;20427;-73
2023/05/12 03:41:16;;;;;;;51.97;20.42;;;;;;;;;;4992450;28;20054;-74
2023/05/12 03:43:42;;;;;;;53.80;22.27;;;;;;;;;;4993570;28;20463;-74
2023/05/12 03:46:08;;;;;;;55.38;21.75;;;;;;;;;;4993196;28;20037;-74
2023/05/12 03:48:34;;;;;;;55.92;22.33;;;;;;;;;;4993805;28;20030;-74
2023/05/12 03:51:00;;;;;;;50.88;21.83;;;;;;;;;;4993294;28;20034;-73
2023/05/12 03:53:26;;;;;;;50.42;22.67;;;;;;;;;;4993418;28;20035;-74
2023/05/12 03:55:52;;;;;;;53.72;21.48;;;;;;;;;;4993131;28;20077;-73
2023/05/12 03:58:18;;;;;;;49.15;21.80;;;;;;;;;;4991823;28;20105;-74
2023/05/12 04:00:45;;;;;;;51.05;23.30;;;;;;;;;;4991944;28;20094;-73
2023/05/12 04:03:11;;;;;;;54.05;24.25;;;;;;;;;;4993234;28;20050;-74
2023/05/12 04:05:38;;;;;;;53.90;24.15;;;;;;;;;;4993246;28;20030;-74
2023/05/12 04:08:04;;;;;;;48.72;21.55;;;;;;;;;;4991343;28;20036;-73
2023/05/12 04:10:30;;;;;;;54.90;23.35;;;;;;;;;;4993024;28;20073;-74
2023/05/12 04:12:56;;;;;;;54.92;24.25;;;;;;;;;;4993050;28;20100;-74
2023/05/12 04:15:22;;;;;;;51.03;22.92;;;;;;;;;;4991750;28;20124;-74
2023/05/12 04:17:49;;;;;;;54.45;22.52;;;;;;;;;;4992988;28;21081;-74
2023/05/12 04:20:15;;;;;;;49.88;21.80;;;;;;;;;;4990757;28;20423;-75
2023/05/12 04:22:43;;;;;;;46.28;21.38;;;;;;;;;;4992946;28;20034;-75
2023/05/12 04:25:09;;;;;;;46.35;21.27;;;;;;;;;;4992950;28;20050;-74
2023/05/12 04:27:35;;;;;;;45.42;20.42;;;;;;;;;;4992888;28;20037;-74
2023/05/12 04:30:01;;;;;;;48.05;21.42;;;;;;;;;;4992715;28;20344;-74
2023/05/12 04:32:27;;;;;;;52.30;22.40;;;;;;;;;;4992334;28;20034;-74
2023/05/12 04:34:55;;;;;;;45.38;21.05;;;;;;;;;;4990336;28;20100;-74
2023/05/12 04:37:21;;;;;;;45.00;21.25;;;;;;;;;;4992614;28;20512;-73
2023/05/12 04:39:47;;;;;;;44.35;19.58;;;;;;;;;;4992628;28;20101;-76
2023/05/12 04:42:13;;;;;;;41.70;21.20;;;;;;;;;;4992364;28;20018;-75
2023/05/12 04:44:39;;;;;;;45.45;22.30;;;;;;;;;;4992556;28;20383;-75
2023/05/12 04:47:05;;;;;;;45.33;21.58;;;;;;;;;;4992527;28;20396;-74
2023/05/12 04:49:31;;;;;;;45.53;21.38;;;;;;;;;;4992583;28;20086;-74
2023/05/12 04:51:57;;;;;;;43.08;20.38;;;;;;;;;;4990990;28;20038;-73
2023/05/12 04:54:23;;;;;;;42.00;20.48;;;;;;;;;;4991994;28;20105;-74
2023/05/12 04:56:50;;;;;;;44.70;18.52;;;;;;;;;;4992457;28;20499;-75
2023/05/12 04:59:16;;;;;;;39.28;17.02;;;;;;;;;;4990913;28;20034;-75
2023/05/12 05:01:42;;;;;;;36.10;18.50;;;;;;;;;;4992217;28;20026;-74
2023/05/12 05:04:08;;;;;;;34.13;17.45;;;;;;;;;;4992050;28;20023;-74
2023/05/12 05:06:34;;;;;;;38.45;18.55;;;;;;;;;;4990569;28;20049;-74
2023/05/12 05:09:00;;;;;;;39.90;18.48;;;;;;;;;;4991689;28;20101;-75
2023/05/12 05:11:26;;;;;;;39.13;18.15;;;;;;;;;;4992321;28;20121;-74
2023/05/12 05:13:53;;;;;;;39.53;17.90;;;;;;;;;;4992217;28;20018;-74
2023/05/12 05:16:19;;;;;;;42.50;18.50;;;;;;;;;;4991652;28;20027;-74
2023/05/12 05:18:48;;;;;;;44.70;19.40;;;;;;;;;;4992088;28;20026;-74
2023/05/12 05:21:14;;;;;;;41.78;19.67;;;;;;;;;;4991637;28;20050;-75
2023/05/12 05:23:41;;;;;;;42.75;19.55;;;;;;;;;;4990516;28;20034;-74
2023/05/12 05:26:08;;;;;;;42.95;19.60;;;;;;;;;;4991957;28;20022;-74
2023/05/12 05:28:34;;;;;;;35.28;17.60;;;;;;;;;;4991848;28;20329;-74
2023/05/12 05:31:00;;;;;;;36.60;15.93;;;;;;;;;;4992067;28;20061;-74
2023/05/12 05:33:26;;;;;;;36.50;15.68;;;;;;;;;;4991808;28;20032;-74
2023/05/12 05:35:52;;;;;;;35.08;15.55;;;;;;;;;;4991994;28;20029;-75
2023/05/12 05:38:18;;;;;;;38.80;16.48;;;;;;;;;;4991653;28;20106;-74
2023/05/12 05:40:44;;;;;;;38.50;17.65;;;;;;;;;;4990189;28;20063;-74
2023/05/12 05:43:10;;;;;;;35.35;16.10;;;;;;;;;;4991706;28;20023;-75
2023/05/12 05:45:36;;;;;;;38.20;16.15;;;;;;;;;;4988118;28;20167;-72
2023/05/12 05:48:02;;;;;;;34.00;15.05;;;;;;;;;;4990853;28;20034;-74
2023/05/12 05:50:28;;;;;;;35.63;14.20;;;;;;;;;;4991280;28;20105;-72
2023/05/12 05:52:55;;;;;;;33.40;13.10;;;;;;;;;;4991274;28;20487;-72
2023/05/12 05:55:21;;;;;;;28.80;12.13;;;;;;;;;;4991793;28;20026;-74
2023/05/12 05:57:47;;;;;;;29.98;12.35;;;;;;;;;;4991678;28;20450;-74
2023/05/12 06:00:14;;;;;;;34.20;12.40;;;;;;;;;;4989879;28;20200;-73
2023/05/12 06:02:40;;;;;;;37.55;13.57;;;;;;;;;;4990554;28;20031;-76
2023/05/12 06:05:06;;;;;;;31.45;12.50;;;;;;;;;;4990041;28;20027;-76
2023/05/12 06:07:33;;;;;;;29.38;12.75;;;;;;;;;;4990953;28;20113;-76
2023/05/12 06:09:59;;;;;;;31.20;12.35;;;;;;;;;;4991408;28;20034;-76
2023/05/12 06:12:25;;;;;;;28.70;12.50;;;;;;;;;;4991500;28;20034;-75
2023/05/12 06:14:51;;;;;;;29.77;13.52;;;;;;;;;;4989873;28;20030;-74
2023/05/12 06:17:17;;;;;;;25.88;12.63;;;;;;;;;;4989850;28;20447;-75
2023/05/12 06:19:46;;;;;;;29.02;12.02;;;;;;;;;;4991343;28;20022;-73
2023/05/12 06:22:13;;;;;;;35.15;14.15;;;;;;;;;;4992156;28;20522;-73
2023/05/12 06:24:40;;;;;;;30.23;12.43;;;;;;;;;;4995377;28;20047;-75
2023/05/12 06:27:07;;;;;;;27.92;13.05;;;;;;;;;;4991538;28;20058;-79
2023/05/12 06:29:33;;;;;;;28.23;12.48;;;;;;;;;;4994160;28;20383;-74
2023/05/12 06:31:59;;;;;;;24.80;11.73;;;;;;;;;;4994393;28;20042;-75
2023/05/12 06:34:25;;;;;;;25.10;11.15;;;;;;;;;;4994867;28;20435;-77
2023/05/12 06:36:51;;;;;;;25.48;11.50;;;;;;;;;;4991929;28;20034;-78
2023/05/12 06:39:17;;;;;;;25.75;11.82;;;;;;;;;;4992297;28;20050;-77
2023/05/12 06:41:43;;;;;;;25.80;10.65;;;;;;;;;;4995009;28;20050;-74
2023/05/12 06:44:11;;;;;;;23.08;10.63;;;;;;;;;;4993931;28;20023;-75
2023/05/12 06:46:38;;;;;;;19.35;9.85;;;;;;;;;;4992536;28;20026;-73
2023/05/12 06:49:05;;;;;;;20.33;9.55;;;;;;;;;;4993582;28;20033;-74
2023/05/12 06:51:31;;;;;;;20.95;10.60;;;;;;;;;;4991399;28;20061;-75
2023/05/12 06:53:57;;;;;;;26.33;11.18;;;;;;;;;;4993179;28;20092;-75
2023/05/12 06:56:23;;;;;;;23.95;10.65;;;;;;;;;;4991637;28;20038;-77
2023/05/12 06:58:50;;;;;;;21.10;10.10;;;;;;;;;;4994100;28;20027;-75
2023/05/12 07:01:17;;;;;;;19.23;9.65;;;;;;;;;;4993194;28;20026;-75
2023/05/12 07:03:43;;;;;;;18.40;9.02;;;;;;;;;;4992008;28;20027;-79
2023/05/12 07:06:09;;;;;;;17.50;9.32;;;;;;;;;;4992324;28;20061;-76
2023/05/12 07:08:35;;;;;;;20.33;8.85;;;;;;;;;;4993502;28;20026;-79
2023/05/12 07:11:02;;;;;;;16.73;7.90;;;;;;;;;;4992842;28;20076;-80
2023/05/12 07:13:28;;;;;;;15.57;8.02;;;;;;;;;;4992700;28;20029;-78
2023/05/12 07:15:54;;;;;;;14.15;7.38;;;;;;;;;;4989754;28;20368;-76
2023/05/12 07:18:20;;;;;;;14.05;8.15;;;;;;;;;;4993398;28;20475;-76
2023/05/12 07:20:46;;;;;;;13.85;7.13;;;;;;;;;;4993810;28;20065;-77
2023/05/12 07:23:12;;;;;;;12.57;6.90;;;;;;;;;;4993626;28;20049;-77
2023/05/12 07:25:38;;;;;;;13.88;7.45;;;;;;;;;;4992771;28;20100;-76
2023/05/12 07:28:05;;;;;;;16.33;7.35;;;;;;;;;;4994195;28;20034;-76
2023/05/12 07:30:31;;;;;;;15.55;7.53;;;;;;;;;;4993822;28;20023;-78
2023/05/12 07:32:57;;;;;;;12.38;6.30;;;;;;;;;;4993294;28;20045;-75
2023/05/12 07:35:23;;;;;;;10.88;6.88;;;;;;;;;;4993421;28;20018;-77
2023/05/12 07:37:49;;;;;;;16.10;6.95;;;;;;;;;;4993904;28;20030;-77
2023/05/12 07:40:15;;;;;;;12.15;7.03;;;;;;;;;;4993853;28;20034;-79
2023/05/12 07:42:41;;;;;;;13.93;7.25;;;;;;;;;;4992518;28;20026;-75
2023/05/12 07:45:08;;;;;;;13.93;7.30;;;;;;;;;;4992591;28;20464;-76
2023/05/12 07:47:34;;;;;;;10.73;6.70;;;;;;;;;;4993148;28;20027;-78
2023/05/12 07:50:00;;;;;;;13.13;6.53;;;;;;;;;;4993320;28;20033;-76
2023/05/12 07:52:26;;;;;;;12.73;7.50;;;;;;;;;;4993772;28;20100;-78
2023/05/12 07:54:52;;;;;;;11.85;6.68;;;;;;;;;;4993672;28;20035;-77
2023/05/12 07:57:18;;;;;;;13.30;7.07;;;;;;;;;;4993354;28;20022;-78
2023/05/12 07:59:44;;;;;;;14.07;7.00;;;;;;;;;;4991966;28;20018;-77
2023/05/12 08:02:10;;;;;;;11.68;7.20;;;;;;;;;;4993133;28;20038;-77
2023/05/12 08:04:36;;;;;;;12.68;7.10;;;;;;;;;;4993509;28;20018;-77
2023/05/12 08:07:02;;;;;;;13.77;7.47;;;;;;;;;;4993327;28;20503;-77
2023/05/12 08:09:28;;;;;;;11.70;7.38;;;;;;;;;;4992859;28;20504;-75
2023/05/12 08:11:54;;;;;;;11.65;7.35;;;;;;;;;;4993018;28;20034;-77
2023/05/12 08:14:21;;;;;;;12.70;7.50;;;;;;;;;;4992970;28;20435;-78
2023/05/12 08:16:47;;;;;;;14.55;7.57;;;;;;;;;;4991886;28;20395;-77
2023/05/12 08:19:13;;;;;;;12.93;7.28;;;;;;;;;;4992912;28;20026;-76
2023/05/12 08:21:39;;;;;;;12.75;7.10;;;;;;;;;;4992338;28;20069;-75
2023/05/12 08:24:05;;;;;;;13.95;7.25;;;;;;;;;;4991567;28;20042;-76
2023/05/12 08:26:31;;;;;;;12.27;7.20;;;;;;;;;;4992809;28;20118;-76
2023/05/12 08:28:57;;;;;;;14.00;7.50;;;;;;;;;;4993308;28;20070;-77
2023/05/12 08:31:24;;;;;;;11.95;6.70;;;;;;;;;;4992848;28;20042;-77
2023/05/12 08:33:50;;;;;;;14.00;7.78;;;;;;;;;;4991267;28;20022;-77
2023/05/12 08:36:16;;;;;;;15.90;7.07;;;;;;;;;;4991733;28;20034;-78
2023/05/12 08:38:42;;;;;;;13.05;6.38;;;;;;;;;;4990794;28;20037;-77
2023/05/12 08:41:16;;;;;;;9.25;5.93;;;;;;;;;;4992581;28;20030;-75
2023/05/12 08:43:43;;;;;;;11.98;6.40;;;;;;;;;;4991628;28;20140;-76
2023/05/12 08:46:10;;;;;;;12.85;5.93;;;;;;;;;;4992051;28;20357;-76
2023/05/12 08:48:38;;;;;;;9.93;5.82;;;;;;;;;;4992255;28;20022;-77
2023/05/12 08:51:10;;;;;;;8.82;5.85;;;;;;;;;;4992213;28;20034;-76
2023/05/12 08:53:37;;;;;;;7.75;4.68;;;;;;;;;;4992504;28;20060;-77
2023/05/12 08:56:06;;;;;;;8.30;5.00;;;;;;;;;;4991075;28;20034;-78
2023/05/12 08:58:32;;;;;;;10.35;4.90;;;;;;;;;;4992362;28;20133;-77
2023/05/12 09:01:03;;;;;;;9.48;5.00;;;;;;;;;;4989423;28;20018;-75
2023/05/12 09:03:30;;;;;;;8.43;4.50;;;;;;;;;;4992241;28;20047;-75
2023/05/12 09:05:59;;;;;;;5.40;4.35;;;;;;;;;;4992097;28;20434;-75
2023/05/12 09:08:26;;;;;;;9.35;4.38;;;;;;;;;;4991861;28;20037;-75
2023/05/12 09:10:54;;;;;;;6.53;3.90;;;;;;;;;;4990522;28;20577;-76
2023/05/12 09:13:25;;;;;;;7.03;3.95;;;;;;;;;;4992221;28;20077;-76
2023/05/12 09:15:55;;;;;;;8.77;4.72;;;;;;;;;;4992097;28;20030;-75
2023/05/12 09:18:21;;;;;;;5.35;3.50;;;;;;;;;;4990931;28;20037;-75
2023/05/12 09:20:47;;;;;;;7.03;3.53;;;;;;;;;;4991466;28;20396;-77
2023/05/12 09:23:17;;;;;;;7.05;3.60;;;;;;;;;;4991749;28;20022;-75
2023/05/12 09:25:44;;;;;;;7.65;3.20;;;;;;;;;;4991869;28;20026;-75
2023/05/12 09:28:10;;;;;;;7.72;3.40;;;;;;;;;;4991894;28;20154;-75
2023/05/12 09:30:37;;;;;;;9.10;3.45;;;;;;;;;;4991934;28;20057;-74
2023/05/12 09:33:07;;;;;;;7.47;3.20;;;;;;;;;;4992017;28;20464;-75
2023/05/12 09:35:37;;;;;;;7.97;3.08;;;;;;;;;;4990674;28;20034;-75
2023/05/12 09:38:07;;;;;;;4.72;2.75;;;;;;;;;;4991572;28;20105;-75
2023/05/12 09:40:33;;;;;;;5.25;2.58;;;;;;;;;;4991799;28;20059;-74
2023/05/12 09:42:59;;;;;;;7.88;2.75;;;;;;;;;;4991915;28;20049;-77
2023/05/12 09:45:26;;;;;;;5.82;2.45;;;;;;;;;;4991637;28;20448;-75
2023/05/12 09:47:52;;;;;;;7.45;2.90;;;;;;;;;;4991801;28;20022;-76
2023/05/12 09:50:18;;;;;;;5.38;2.70;;;;;;;;;;4991236;28;20022;-76
2023/05/12 09:52:44;;;;;;;11.05;2.50;;;;;;;;;;4990753;28;20050;-75
2023/05/12 09:55:11;;;;;;;8.40;2.55;;;;;;;;;;4992111;28;20023;-75
2023/05/12 09:57:41;;;;;;;5.07;2.20;;;;;;;;;;4995693;28;20038;-75
2023/05/12 10:00:09;;;;;;;5.60;2.10;;;;;;;;;;4994233;28;20045;-74
2023/05/12 10:02:37;;;;;;;5.43;2.67;;;;;;;;;;4995804;28;20112;-77
2023/05/12 10:05:05;;;;;;;5.85;1.77;;;;;;;;;;4995527;28;20026;-75
2023/05/12 10:07:32;;;;;;;4.38;2.13;;;;;;;;;;4995603;28;20038;-75
2023/05/12 10:09:59;;;;;;;8.38;1.95;;;;;;;;;;4994357;28;20129;-75
2023/05/12 10:12:25;;;;;;;6.93;1.70;;;;;;;;;;4995079;28;20066;-74
2023/05/12 10:14:51;;;;;;;3.40;1.48;;;;;;;;;;4995585;28;20022;-75
2023/05/12 10:17:19;;;;;;;7.22;1.60;;;;;;;;;;4995372;28;20057;-74
2023/05/12 10:19:46;;;;;;;5.47;2.00;;;;;;;;;;4993765;28;20119;-74
2023/05/12 10:22:15;;;;;;;5.50;1.88;;;;;;;;;;4995360;28;20196;-73
2023/05/12 10:24:41;;;;;;;3.88;1.73;;;;;;;;;;4994963;28;20534;-75
2023/05/12 10:27:07;;;;;;;6.00;1.90;;;;;;;;;;4995279;28;20076;-74
2023/05/12 10:29:34;;;;;;;5.00;2.03;;;;;;;;;;4995161;28;20084;-74
2023/05/12 10:32:00;;;;;;;4.13;1.73;;;;;;;;;;4995054;28;20040;-74
2023/05/12 10:34:37;;;;;;;2.47;1.90;;;;;;;;;;4993696;28;20088;-73
2023/05/12 10:37:07;;;;;;;5.18;2.03;;;;;;;;;;4993723;28;20082;-74
2023/05/12 10:39:34;;;;;;;4.18;2.00;;;;;;;;;;4992384;28;20014;-75
2023/05/12 10:42:01;;;;;;;3.38;2.28;;;;;;;;;;4995003;28;20026;-75
2023/05/12 10:44:28;;;;;;;4.28;1.90;;;;;;;;;;4993602;28;20096;-76
2023/05/12 10:47:00;;;;;;;4.85;2.88;;;;;;;;;;4992861;28;20085;-75
2023/05/12 10:49:33;;;;;;;7.47;1.77;;;;;;;;;;4994848;28;20030;-77
2023/05/12 10:52:00;;;;;;;4.53;2.00;;;;;;;;;;4993177;28;20117;-74
2023/05/12 10:54:26;;;;;;;6.25;2.08;;;;;;;;;;4994644;28;20542;-74
2023/05/12 10:56:56;;;;;;;6.13;2.08;;;;;;;;;;4994450;28;20053;-75
2023/05/12 10:59:23;;;;;;;7.28;2.30;;;;;;;;;;4992931;28;20423;-74
2023/05/12 11:02:00;;;;;;;4.47;2.03;;;;;;;;;;4993261;28;20026;-75
2023/05/12 11:04:39;;;;;;;4.80;1.92;;;;;;;;;;4994301;28;20037;-72
2023/05/12 11:07:06;;;;;;;4.13;1.70;;;;;;;;;;4988691;28;20070;-72
2023/05/12 11:09:34;;;;;;;4.45;1.60;;;;;;;;;;4993819;28;20018;-71
2023/05/12 11:12:01;;;;;;;4.22;1.95;;;;;;;;;;4994391;28;20042;-71
2023/05/12 11:14:27;;;;;;;2.67;1.90;;;;;;;;;;4993909;28;20080;-70
2023/05/12 11:16:53;;;;;;;5.47;2.20;;;;;;;;;;4994350;28;20062;-70
2023/05/12 11:19:19;;;;;;;4.28;1.92;;;;;;;;;;4993990;28;20105;-70
2023/05/12 11:21:45;;;;;;;5.13;1.67;;;;;;;;;;4993171;28;20101;-70
2023/05/12 11:24:12;;;;;;;3.60;1.67;;;;;;;;;;4993171;28;20503;-71
2023/05/12 11:26:40;;;;;;;3.25;2.00;;;;;;;;;;4993722;28;20400;-71
2023/05/12 11:29:06;;;;;;;4.32;1.90;;;;;;;;;;4993963;28;20027;-70
2023/05/12 11:31:32;;;;;;;3.28;1.90;;;;;;;;;;4993706;28;20031;-71
2023/05/12 11:34:02;;;;;;;7.60;2.50;;;;;;;;;;4993579;28;20448;-71
2023/05/12 11:36:28;;;;;;;4.38;1.92;;;;;;;;;;4993664;28;20046;-70
2023/05/12 11:38:55;;;;;;;2.70;1.83;;;;;;;;;;4992667;28;20033;-71
2023/05/12 11:41:25;;;;;;;6.20;2.10;;;;;;;;;;4994005;28;20030;-72
2023/05/12 11:43:51;;;;;;;3.13;1.85;;;;;;;;;;4993338;28;20019;-71
2023/05/12 11:46:27;;;;;;;4.53;1.98;;;;;;;;;;4993619;28;20022;-72
2023/05/12 11:48:59;;;;;;;5.13;1.58;;;;;;;;;;4993561;28;20019;-70
2023/05/12 11:51:26;;;;;;;3.03;1.75;;;;;;;;;;4993493;28;20035;-70
2023/05/12 11:53:53;;;;;;;5.05;1.70;;;;;;;;;;4992177;28;20046;-71
2023/05/12 11:56:20;;;;;;;4.75;1.58;;;;;;;;;;4993051;28;20030;-72
2023/05/12 11:58:54;;;;;;;4.40;1.50;;;;;;;;;;4993525;28;20018;-71
2023/05/12 12:01:20;;;;;;;3.70;1.30;;;;;;;;;;4993266;28;20256;-72
2023/05/12 12:03:47;;;;;;;3.55;1.50;;;;;;;;;;4993735;28;20084;-73
2023/05/12 12:06:14;;;;;;;3.70;1.85;;;;;;;;;;4993109;28;20036;-71
2023/05/12 12:08:56;;;;;;;3.33;1.30;;;;;;;;;;4992190;28;20037;-72
2023/05/12 12:11:22;;;;;;;;;;;;;;;;;;4993478;28;20049;-72
2023/05/12 12:13:55;;;;;;;2.88;1.02;;;;;;;;;;4993044;28;19906;-72
2023/05/12 12:16:23;;;;;;;1.83;1.27;;;;;;;;;;4993277;28;20102;-73
2023/05/12 12:18:49;;;;;;;2.25;1.10;;;;;;;;;;4992314;28;20022;-72
2023/05/12 12:21:15;;;;;;;4.82;1.25;;;;;;;;;;4992543;28;20053;-71
2023/05/12 12:23:41;;;;;;;2.88;1.65;;;;;;;;;;4993345;28;20056;-72
2023/05/12 12:26:07;;;;;;;1.48;1.20;;;;;;;;;;4991498;28;20526;-72
2023/05/12 12:28:34;;;;;;;2.22;1.33;;;;;;;;;;4992732;28;20403;-72
2023/05/12 12:31:00;;;;;;;2.13;1.17;;;;;;;;;;4992559;28;20037;-74
2023/05/12 12:33:26;;;;;;;1.50;0.95;;;;;;;;;;4991616;28;20113;-73
2023/05/12 12:35:52;;;;;;;1.33;1.20;;;;;;;;;;4991471;28;20467;-73
2023/05/12 12:38:19;;;;;;;2.33;1.25;;;;;;;;;;4992649;28;20022;-74
2023/05/12 12:40:45;;;;;;;3.03;1.27;;;;;;;;;;4991087;28;20455;-73
2023/05/12 12:43:11;;;;;;;2.17;1.40;;;;;;;;;;4991482;28;20030;-73
2023/05/12 12:45:37;;;;;;;3.05;1.38;;;;;;;;;;4992539;28;20113;-73
2023/05/12 12:48:05;;;;;;;4.32;1.65;;;;;;;;;;4992829;28;20026;-73
2023/05/12 12:50:31;;;;;;;3.50;1.30;;;;;;;;;;4992388;28;20541;-73
2023/05/12 12:52:57;;;;;;;3.35;1.20;;;;;;;;;;4991887;28;20042;-73
2023/05/12 12:55:24;;;;;;;2.50;1.33;;;;;;;;;;4992459;28;20069;-74
2023/05/12 12:57:50;;;;;;;3.28;1.70;;;;;;;;;;4992475;28;20027;-72
2023/05/12 13:00:16;;;;;;;2.38;1.23;;;;;;;;;;4991228;28;20057;-73
2023/05/12 13:02:43;;;;;;;6.38;1.80;;;;;;;;;;4992454;28;20030;-74
2023/05/12 13:05:09;;;;;;;4.10;1.80;;;;;;;;;;4991890;28;20029;-74
2023/05/12 13:07:36;;;;;;;4.35;1.83;;;;;;;;;;4992259;28;20052;-75
2023/05/12 13:10:03;;;;;;;3.47;1.60;;;;;;;;;;4992109;28;20076;-74
2023/05/12 13:12:30;;;;;;;3.42;1.90;;;;;;;;;;4992025;28;20415;-72
2023/05/12 13:14:56;;;;;;;2.90;1.92;;;;;;;;;;4991029;28;20022;-75
2023/05/12 13:17:22;;;;;;;4.03;2.25;;;;;;;;;;4990455;28;20034;-74
2023/05/12 13:19:48;;;;;;;4.25;2.22;;;;;;;;;;4992151;28;20109;-75
2023/05/12 13:22:14;;;;;;;7.43;2.20;;;;;;;;;;4991760;28;20054;-75
2023/05/12 13:24:41;;;;;;;3.78;2.50;;;;;;;;;;4991622;28;20117;-75
2023/05/12 13:27:08;;;;;;;3.15;2.13;;;;;;;;;;4991542;28;20480;-75
2023/05/12 13:29:34;;;;;;;5.30;2.42;;;;;;;;;;4991935;28;20023;-76
2023/05/12 13:32:00;;;;;;;6.18;2.75;;;;;;;;;;4990305;28;20063;-75
2023/05/12 13:34:26;;;;;;;5.03;2.45;;;;;;;;;;4991860;28;20109;-76
2023/05/12 13:36:52;;;;;;;8.13;2.85;;;;;;;;;;4991747;28;20022;-75
2023/05/12 13:39:19;;;;;;;3.38;2.58;;;;;;;;;;4991383;28;20444;-75
2023/05/12 13:41:45;;;;;;;4.38;2.97;;;;;;;;;;4991704;28;20542;-75
2023/05/12 13:44:11;;;;;;;4.03;3.00;;;;;;;;;;4991746;28;20030;-76
2023/05/12 13:46:37;;;;;;;4.18;2.97;;;;;;;;;;4991779;28;20034;-76
2023/05/12 13:49:03;;;;;;;6.32;3.17;;;;;;;;;;4990678;28;20034;-75
2023/05/12 13:51:31;;;;;;;4.57;2.90;;;;;;;;;;4991288;28;20042;-74
2023/05/12 13:53:57;;;;;;;5.50;2.75;;;;;;;;;;4992245;28;20034;-74
2023/05/12 13:56:23;;;;;;;7.07;2.97;;;;;;;;;;4991741;28;20093;-74
2023/05/12 13:58:49;;;;;;;4.47;2.75;;;;;;;;;;4991696;28;20058;-74
2023/05/12 14:01:15;;;;;;;7.30;3.60;;;;;;;;;;4991526;28;20023;-74
2023/05/12 14:03:41;;;;;;;7.05;3.05;;;;;;;;;;4990117;28;20436;-75
2023/05/12 14:06:08;;;;;;;6.90;3.47;;;;;;;;;;4989374;28;20062;-75
2023/05/12 14:08:34;;;;;;;8.73;3.88;;;;;;;;;;4991409;28;20027;-75
2023/05/12 14:11:00;;;;;;;6.47;3.80;;;;;;;;;;4991321;28;20471;-75
2023/05/12 14:13:26;;;;;;;8.05;4.15;;;;;;;;;;4991001;28;20476;-74
2023/05/12 14:15:52;;;;;;;6.68;3.53;;;;;;;;;;4991556;28;20049;-75
2023/05/12 14:18:19;;;;;;;4.93;3.53;;;;;;;;;;4990667;28;20038;-73
2023/05/12 14:20:45;;;;;;;6.35;3.55;;;;;;;;;;4988743;28;20055;-74
2023/05/12 14:23:11;;;;;;;6.30;3.55;;;;;;;;;;4989752;28;20054;-73
2023/05/12 14:25:37;;;;;;;6.95;4.55;;;;;;;;;;4990841;28;20031;-75